Time;durP1;ratioP1;P1;durP2;ratioP2;P2;SDS_P1;SDS_P2;PMS_P1;PMS_P2;Temp;Humidity;BMP_temperature;BMP_pressure;BME280_temperature;BME280_humidity;BME280_pressure;Samples;Min_cycle;Max_cycle;Signal;HPM_P1;HPM_P2
2022/03/30 00:00:05;;;;;;;12.50;3.40;;;5.00;78.60;;;;;;5058315;28;20209;-90
2022/03/30 00:02:31;;;;;;;11.53;3.00;;;5.00;78.70;;;;;;5057970;28;20174;-90
2022/03/30 00:04:56;;;;;;;16.47;3.47;;;5.10;78.60;;;;;;5058205;28;20172;-90
2022/03/30 00:07:22;;;;;;;14.33;3.70;;;5.10;78.30;;;;;;5058256;28;20183;-90
2022/03/30 00:09:47;;;;;;;12.20;3.40;;;5.10;78.00;;;;;;5058270;28;20715;-90
2022/03/30 00:12:13;;;;;;;7.47;2.87;;;5.10;77.90;;;;;;5057894;28;20214;-90
2022/03/30 00:14:39;;;;;;;17.90;4.03;;;5.20;77.80;;;;;;5058305;28;20229;-90
2022/03/30 00:17:05;;;;;;;6.93;2.77;;;5.20;77.90;;;;;;5058336;28;20186;-91
2022/03/30 00:19:31;;;;;;;11.40;2.97;;;5.20;78.00;;;;;;5058094;28;20190;-90
2022/03/30 00:21:57;;;;;;;12.30;4.07;;;5.20;78.10;;;;;;5058200;28;20210;-90
2022/03/30 00:24:23;;;;;;;15.80;3.60;;;5.10;78.10;;;;;;5058147;28;20179;-90
2022/03/30 00:26:49;;;;;;;17.60;4.00;;;5.20;78.20;;;;;;5058161;28;20179;-90
2022/03/30 00:29:14;;;;;;;13.50;4.47;;;5.20;78.20;;;;;;5058078;28;20205;-90
2022/03/30 00:31:40;;;;;;;12.63;4.13;;;5.10;78.50;;;;;;5058026;28;20192;-90
2022/03/30 00:34:06;;;;;;;15.83;4.47;;;5.00;79.00;;;;;;5059388;28;20278;-88
2022/03/30 00:36:32;;;;;;;12.73;3.90;;;5.00;79.10;;;;;;5059371;28;20172;-90
2022/03/30 00:38:57;;;;;;;12.70;4.40;;;5.10;79.10;;;;;;5058403;28;20172;-90
2022/03/30 00:41:23;;;;;;;14.93;4.07;;;5.10;79.00;;;;;;5058129;28;20200;-88
2022/03/30 00:43:48;;;;;;;12.17;4.20;;;5.00;79.00;;;;;;5060864;28;20202;-91
2022/03/30 00:46:15;;;;;;;10.20;3.50;;;5.00;79.10;;;;;;5057882;28;20641;-90
2022/03/30 00:48:42;;;;;;;7.53;3.80;;;5.00;79.30;;;;;;5058000;28;20560;-90
2022/03/30 00:51:08;;;;;;;10.80;3.87;;;5.00;79.20;;;;;;5057917;28;20289;-90
2022/03/30 00:53:34;;;;;;;12.43;3.67;;;5.00;79.20;;;;;;5058167;28;20194;-91
2022/03/30 00:56:00;;;;;;;10.47;3.37;;;5.10;79.20;;;;;;5057976;28;20182;-90
2022/03/30 00:58:26;;;;;;;10.03;3.90;;;5.00;79.10;;;;;;5057882;28;20273;-90
2022/03/30 01:00:52;;;;;;;11.67;3.33;;;5.00;79.30;;;;;;5059289;28;20295;-90
2022/03/30 01:03:19;;;;;;;15.57;3.97;;;5.00;79.40;;;;;;5059471;28;20186;-90
2022/03/30 01:05:45;;;;;;;10.83;3.30;;;5.00;79.80;;;;;;5053729;28;20189;-90
2022/03/30 01:08:11;;;;;;;9.47;3.53;;;5.00;80.20;;;;;;5055737;28;20293;-90
2022/03/30 01:10:36;;;;;;;8.87;3.70;;;4.80;80.90;;;;;;5054652;28;20315;-90
2022/03/30 01:13:03;;;;;;;13.67;3.60;;;4.70;81.60;;;;;;5054536;28;20185;-90
2022/03/30 01:15:30;;;;;;;15.37;4.67;;;4.70;82.10;;;;;;5054774;28;20233;-90
2022/03/30 01:17:56;;;;;;;10.90;3.63;;;4.60;82.30;;;;;;5054513;28;20183;-90
2022/03/30 01:20:22;;;;;;;11.53;3.57;;;4.70;82.30;;;;;;5054485;28;20251;-89
2022/03/30 01:22:49;;;;;;;11.77;3.77;;;4.70;82.30;;;;;;5055524;28;20707;-90
2022/03/30 01:25:14;;;;;;;7.63;3.83;;;4.80;82.20;;;;;;5054390;28;20178;-91
2022/03/30 01:27:40;;;;;;;15.63;4.27;;;4.80;82.10;;;;;;5054438;28;20227;-91
2022/03/30 01:33:02;;;;;;;13.20;3.63;;;4.60;82.50;;;;;;5055455;28;20162;-90
2022/03/30 01:35:28;;;;;;;12.83;3.23;;;4.50;82.90;;;;;;5054131;28;20179;-90
2022/03/30 01:37:55;;;;;;;11.43;3.47;;;4.50;83.00;;;;;;5054474;28;20174;-90
2022/03/30 01:40:21;;;;;;;17.10;4.57;;;4.40;83.20;;;;;;5055179;28;20199;-90
2022/03/30 01:42:47;;;;;;;12.87;3.90;;;4.30;83.60;;;;;;5054011;28;20546;-90
2022/03/30 01:45:15;;;;;;;10.70;3.27;;;4.40;83.60;;;;;;5055228;28;20170;-91
2022/03/30 01:47:47;;;;;;;11.40;4.00;;;4.40;83.60;;;;;;5053883;28;20174;-90
2022/03/30 01:50:13;;;;;;;13.13;3.80;;;4.40;83.60;;;;;;5054636;28;20197;-90
2022/03/30 01:52:38;;;;;;;10.47;4.13;;;4.50;83.50;;;;;;5055027;28;20636;-90
2022/03/30 01:55:04;;;;;;;7.40;3.43;;;4.50;83.40;;;;;;5053741;28;20662;-91
2022/03/30 01:57:30;;;;;;;13.03;3.73;;;4.50;83.30;;;;;;5054100;28;20697;-90
2022/03/30 01:59:56;;;;;;;9.80;3.77;;;4.50;83.20;;;;;;5053677;28;20256;-89
2022/03/30 02:02:21;;;;;;;11.43;3.80;;;4.60;83.10;;;;;;5053552;28;20235;-90
2022/03/30 02:04:47;;;;;;;8.63;3.53;;;4.60;83.00;;;;;;5053493;28;20240;-90
2022/03/30 02:07:12;;;;;;;8.43;3.73;;;4.60;83.00;;;;;;5053508;28;20174;-89
2022/03/30 02:09:38;;;;;;;11.13;4.83;;;4.60;83.00;;;;;;5054613;28;20230;-90
2022/03/30 02:12:05;;;;;;;14.10;4.37;;;4.60;82.90;;;;;;5053177;28;20295;-89
2022/03/30 02:14:31;;;;;;;10.83;3.30;;;4.60;82.90;;;;;;5053454;28;20262;-90
2022/03/30 02:16:56;;;;;;;13.93;3.87;;;4.70;82.90;;;;;;5054429;28;20628;-90
2022/03/30 02:19:22;;;;;;;9.57;3.63;;;4.70;82.70;;;;;;5053376;28;20706;-90
2022/03/30 02:21:47;;;;;;;8.90;3.80;;;4.70;82.60;;;;;;5053078;28;20668;-90
2022/03/30 02:24:13;;;;;;;7.30;3.00;;;4.70;82.60;;;;;;5053979;28;20237;-91
2022/03/30 02:26:38;;;;;;;12.57;3.43;;;4.80;82.60;;;;;;5053039;28;20638;-90
2022/03/30 02:29:04;;;;;;;8.73;3.73;;;4.80;82.50;;;;;;5054547;28;20202;-90
2022/03/30 02:31:30;;;;;;;8.77;3.27;;;4.80;82.50;;;;;;5053072;28;20205;-90
2022/03/30 02:33:55;;;;;;;15.87;3.67;;;4.80;82.40;;;;;;5052947;28;20232;-90
2022/03/30 02:36:21;;;;;;;9.10;3.30;;;4.80;82.40;;;;;;5053018;28;20258;-90
2022/03/30 02:38:47;;;;;;;9.93;3.60;;;4.80;82.50;;;;;;5053100;28;20187;-90
2022/03/30 02:41:12;;;;;;;9.23;3.60;;;4.80;82.70;;;;;;5052801;28;20243;-90
2022/03/30 02:43:39;;;;;;;14.87;3.67;;;4.80;83.00;;;;;;5053163;28;20181;-90
2022/03/30 02:46:05;;;;;;;13.43;3.83;;;4.70;83.10;;;;;;5052685;28;20183;-90
2022/03/30 02:48:32;;;;;;;11.17;3.50;;;4.80;83.20;;;;;;5052557;28;20698;-90
2022/03/30 02:51:00;;;;;;;12.40;3.70;;;4.70;83.20;;;;;;5052852;28;20217;-89
2022/03/30 02:53:26;;;;;;;12.50;3.40;;;4.70;83.50;;;;;;5052628;28;20173;-89
2022/03/30 02:55:52;;;;;;;13.73;3.37;;;4.70;83.60;;;;;;5052939;28;20186;-89
2022/03/30 02:58:19;;;;;;;7.37;3.30;;;4.70;83.80;;;;;;5053074;28;20190;-90
2022/03/30 03:00:45;;;;;;;9.07;3.57;;;4.70;84.20;;;;;;5053706;28;20190;-90
2022/03/30 03:03:11;;;;;;;10.90;3.47;;;4.70;84.70;;;;;;5052383;28;20219;-90
2022/03/30 03:05:38;;;;;;;8.53;3.23;;;4.60;85.00;;;;;;5052452;28;20189;-90
2022/03/30 03:08:08;;;;;;;11.30;2.90;;;4.50;85.50;;;;;;5052602;28;20640;-91
2022/03/30 03:10:36;;;;;;;11.40;4.00;;;4.50;85.90;;;;;;5052259;28;20567;-91
2022/03/30 03:13:05;;;;;;;11.23;2.97;;;4.30;86.00;;;;;;5052375;28;20179;-92
2022/03/30 03:15:32;;;;;;;14.73;4.67;;;4.20;85.60;;;;;;5053210;28;20178;-92
2022/03/30 03:17:58;;;;;;;10.83;4.17;;;4.20;85.90;;;;;;5053026;28;20184;-92
2022/03/30 03:20:25;;;;;;;15.87;3.93;;;4.20;86.40;;;;;;5052674;28;20666;-92
2022/03/30 03:22:51;;;;;;;15.30;2.90;;;4.00;86.30;;;;;;5052247;28;20172;-91
2022/03/30 03:25:16;;;;;;;9.60;2.63;;;3.90;85.90;;;;;;5053309;28;20175;-90
2022/03/30 03:27:42;;;;;;;8.63;2.97;;;3.80;85.80;;;;;;5052255;28;20172;-92
2022/03/30 03:30:09;;;;;;;13.20;2.63;;;3.80;85.90;;;;;;5052347;28;20649;-93
2022/03/30 03:32:35;;;;;;;11.27;3.43;;;3.70;86.10;;;;;;5054062;28;20227;-92
2022/03/30 03:35:01;;;;;;;15.80;4.40;;;3.70;86.60;;;;;;5055220;28;20179;-92
2022/03/30 03:37:26;;;;;;;13.30;3.60;;;3.80;87.10;;;;;;5053787;28;20168;-93
2022/03/30 03:39:52;;;;;;;11.43;4.00;;;3.80;87.40;;;;;;5053246;28;20186;-92
2022/03/30 03:42:17;;;;;;;14.67;3.87;;;3.80;87.50;;;;;;5052947;28;20223;-93
2022/03/30 03:44:43;;;;;;;16.43;4.10;;;3.80;87.70;;;;;;5054216;28;20176;-92
2022/03/30 03:47:09;;;;;;;10.87;3.20;;;3.70;87.70;;;;;;5052415;28;20709;-91
2022/03/30 03:49:38;;;;;;;12.63;3.13;;;3.70;87.80;;;;;;5053893;28;20252;-91
2022/03/30 03:52:05;;;;;;;13.17;3.17;;;3.60;87.90;;;;;;5052399;28;20678;-91
2022/03/30 03:54:31;;;;;;;12.00;3.00;;;3.60;88.00;;;;;;5052035;28;20172;-90
2022/03/30 03:56:56;;;;;;;10.33;3.00;;;3.50;88.20;;;;;;5051869;28;20195;-90
2022/03/30 03:59:22;;;;;;;9.17;2.87;;;3.50;88.30;;;;;;5051916;28;20180;-90
2022/03/30 04:01:48;;;;;;;10.27;3.53;;;3.50;88.30;;;;;;5052358;28;20250;-90
2022/03/30 04:04:13;;;;;;;13.53;2.90;;;3.40;88.40;;;;;;5052222;28;20668;-91
2022/03/30 04:06:39;;;;;;;5.87;2.47;;;3.40;88.50;;;;;;5051985;28;20730;-91
2022/03/30 04:09:04;;;;;;;12.60;2.90;;;3.30;88.60;;;;;;5051788;28;20204;-91
2022/03/30 04:11:30;;;;;;;14.97;2.57;;;3.30;88.60;;;;;;5052227;28;20206;-91
2022/03/30 04:13:56;;;;;;;13.20;2.60;;;3.30;88.60;;;;;;5054111;28;20630;-92
2022/03/30 04:16:21;;;;;;;13.43;2.70;;;3.20;88.60;;;;;;5053120;28;20178;-89
2022/03/30 04:18:47;;;;;;;6.80;2.70;;;3.20;88.60;;;;;;5055768;28;20717;-91
2022/03/30 04:21:13;;;;;;;10.80;2.50;;;3.20;88.70;;;;;;5052736;28;20705;-92
2022/03/30 04:23:38;;;;;;;14.87;3.57;;;3.10;88.70;;;;;;5052360;28;20245;-92
2022/03/30 04:26:04;;;;;;;13.33;2.80;;;3.10;88.80;;;;;;5054138;28;20263;-92
2022/03/30 04:28:30;;;;;;;10.73;3.27;;;3.10;88.90;;;;;;5054129;28;20573;-92
2022/03/30 04:30:55;;;;;;;21.70;2.90;;;3.10;89.00;;;;;;5052741;28;20218;-92
2022/03/30 04:33:22;;;;;;;10.83;2.80;;;3.10;89.00;;;;;;5052044;28;20698;-92
2022/03/30 04:35:47;;;;;;;10.67;2.93;;;3.00;89.00;;;;;;5052365;28;20297;-91
2022/03/30 04:38:14;;;;;;;11.03;2.90;;;3.00;89.00;;;;;;5052083;28;20691;-91
2022/03/30 04:40:40;;;;;;;11.90;3.33;;;2.90;89.10;;;;;;5054424;28;20294;-90
2022/03/30 04:43:06;;;;;;;7.53;2.80;;;2.90;89.10;;;;;;5055603;28;20277;-92
2022/03/30 04:45:32;;;;;;;11.67;3.40;;;2.90;89.20;;;;;;5055620;28;20625;-91
2022/03/30 04:47:57;;;;;;;6.27;3.40;;;2.90;89.30;;;;;;5055824;28;20209;-91
2022/03/30 04:50:24;;;;;;;11.30;3.97;;;2.90;89.50;;;;;;5055693;28;20234;-92
2022/03/30 04:52:49;;;;;;;7.83;3.50;;;2.90;89.40;;;;;;5055796;28;20253;-91
2022/03/30 04:55:15;;;;;;;9.73;4.10;;;2.90;89.50;;;;;;5055520;28;20645;-91
2022/03/30 04:57:41;;;;;;;11.40;3.93;;;2.90;89.50;;;;;;5055812;28;20537;-91
2022/03/30 05:00:09;;;;;;;9.43;3.00;;;2.90;89.60;;;;;;5055407;28;20179;-92
2022/03/30 05:02:36;;;;;;;7.93;2.87;;;2.90;89.70;;;;;;5055195;28;20681;-92
2022/03/30 05:05:02;;;;;;;13.73;2.60;;;2.90;89.70;;;;;;5055257;28;20693;-93
2022/03/30 05:07:28;;;;;;;8.80;2.83;;;2.90;89.60;;;;;;5056136;28;20176;-90
2022/03/30 05:09:54;;;;;;;8.97;2.53;;;2.90;89.60;;;;;;5054990;28;20214;-91
2022/03/30 05:12:19;;;;;;;8.63;2.23;;;2.80;89.60;;;;;;5055843;28;20238;-91
2022/03/30 05:14:45;;;;;;;10.53;2.70;;;2.80;89.60;;;;;;5054892;28;20649;-90
2022/03/30 05:17:10;;;;;;;7.93;2.50;;;2.80;89.60;;;;;;5055396;28;20171;-92
2022/03/30 05:19:37;;;;;;;4.83;2.27;;;2.70;89.70;;;;;;5054829;28;20173;-91
2022/03/30 05:22:05;;;;;;;5.73;2.57;;;2.80;89.80;;;;;;5055168;28;20676;-91
2022/03/30 05:24:30;;;;;;;6.83;2.97;;;2.70;89.90;;;;;;5054957;28;20266;-91
2022/03/30 05:26:56;;;;;;;8.97;2.60;;;2.70;89.90;;;;;;5054613;28;20216;-91
2022/03/30 05:29:23;;;;;;;8.53;3.50;;;2.70;89.90;;;;;;5054701;28;20206;-91
2022/03/30 05:31:48;;;;;;;11.43;3.90;;;2.70;89.90;;;;;;5054909;28;20202;-91
2022/03/30 05:34:14;;;;;;;7.97;3.43;;;2.70;90.00;;;;;;5054788;28;20185;-91
2022/03/30 05:36:40;;;;;;;10.23;4.33;;;2.70;90.00;;;;;;5054926;28;20652;-92
2022/03/30 05:39:05;;;;;;;14.80;3.60;;;2.70;90.00;;;;;;5055042;28;20238;-91
2022/03/30 05:41:31;;;;;;;11.20;4.17;;;2.70;90.10;;;;;;5054639;28;20237;-91
2022/03/30 05:43:56;;;;;;;9.83;3.53;;;2.60;90.20;;;;;;5054487;28;20645;-91
2022/03/30 05:46:22;;;;;;;11.57;3.90;;;2.60;90.20;;;;;;5054648;28;20182;-90
2022/03/30 05:48:47;;;;;;;12.97;3.70;;;2.60;90.20;;;;;;5054728;28;20261;-90
2022/03/30 05:51:13;;;;;;;14.13;4.43;;;2.60;90.20;;;;;;5053831;28;20198;-93
2022/03/30 05:53:39;;;;;;;9.07;4.23;;;2.70;90.30;;;;;;5054439;28;20174;-91
2022/03/30 05:56:05;;;;;;;6.83;4.00;;;2.70;90.40;;;;;;5055539;28;20169;-91
2022/03/30 05:58:31;;;;;;;12.17;4.40;;;2.70;90.40;;;;;;5054564;28;20183;-91
2022/03/30 06:01:00;;;;;;;10.17;4.87;;;2.70;90.50;;;;;;5054229;28;20206;-92
2022/03/30 06:03:25;;;;;;;14.17;5.33;;;2.70;90.60;;;;;;5055270;28;20328;-92
2022/03/30 06:05:51;;;;;;;14.53;4.87;;;2.70;90.70;;;;;;5054668;28;20260;-92
2022/03/30 06:08:17;;;;;;;11.00;5.10;;;2.70;90.60;;;;;;5053909;28;20238;-92
2022/03/30 06:10:43;;;;;;;11.63;4.40;;;2.60;90.60;;;;;;5053885;28;20215;-91
2022/03/30 06:13:09;;;;;;;11.87;4.60;;;2.60;90.60;;;;;;5055159;28;20173;-92
2022/03/30 06:15:34;;;;;;;8.10;4.33;;;2.50;90.70;;;;;;5054983;28;20205;-92
2022/03/30 06:18:02;;;;;;;6.93;4.07;;;2.60;90.70;;;;;;5054162;28;20660;-92
2022/03/30 06:20:28;;;;;;;16.10;5.00;;;2.60;90.80;;;;;;5055299;28;20190;-92
2022/03/30 06:22:54;;;;;;;13.70;4.77;;;2.70;90.80;;;;;;5054280;28;20190;-92
2022/03/30 06:25:25;;;;;;;12.43;5.17;;;2.60;90.80;;;;;;5053781;28;20182;-92
2022/03/30 06:27:51;;;;;;;7.90;4.67;;;2.70;90.90;;;;;;5054805;28;20179;-91
2022/03/30 06:30:17;;;;;;;13.33;4.87;;;2.70;91.00;;;;;;5053779;28;20185;-91
2022/03/30 06:32:46;;;;;;;12.23;4.33;;;2.70;91.00;;;;;;5053840;28;20180;-91
2022/03/30 06:35:12;;;;;;;10.53;4.30;;;2.70;91.00;;;;;;5054320;28;20239;-91
2022/03/30 06:37:38;;;;;;;13.90;6.40;;;2.70;91.00;;;;;;5053673;28;20327;-92
2022/03/30 06:40:04;;;;;;;11.60;4.17;;;2.70;91.10;;;;;;5053834;28;20186;-91
2022/03/30 06:42:30;;;;;;;8.97;4.10;;;2.70;91.00;;;;;;5053864;28;20217;-92
2022/03/30 06:44:56;;;;;;;10.97;3.93;;;2.70;91.10;;;;;;5053817;28;20181;-91
2022/03/30 06:47:22;;;;;;;9.43;4.07;;;2.80;91.10;;;;;;5053661;28;20661;-90
2022/03/30 06:49:48;;;;;;;11.57;4.27;;;2.80;91.20;;;;;;5053777;28;20205;-93
2022/03/30 06:52:13;;;;;;;14.63;3.70;;;2.90;91.30;;;;;;5054088;28;20218;-92
2022/03/30 06:54:39;;;;;;;9.57;3.60;;;3.00;91.30;;;;;;5054253;28;20271;-92
2022/03/30 06:57:05;;;;;;;13.83;3.40;;;2.90;91.20;;;;;;5054168;28;20183;-91
2022/03/30 06:59:31;;;;;;;10.57;3.50;;;2.90;91.20;;;;;;5056649;28;20178;-91
2022/03/30 07:01:58;;;;;;;6.87;3.40;;;3.00;91.20;;;;;;5053015;28;20194;-92
2022/03/30 07:04:24;;;;;;;9.00;4.10;;;3.00;91.10;;;;;;5054495;28;20172;-90
2022/03/30 07:12:17;;;;;;;11.67;3.47;;;3.00;91.10;;;;;;5054732;28;20216;-92
2022/03/30 07:14:46;;;;;;;7.33;4.10;;;3.10;91.10;;;;;;5054474;28;20259;-88
2022/03/30 07:17:12;;;;;;;7.80;3.40;;;3.10;91.10;;;;;;5054557;28;20170;-90
2022/03/30 07:19:38;;;;;;;14.03;3.80;;;3.10;91.10;;;;;;5054336;28;20654;-91
2022/03/30 07:22:04;;;;;;;7.93;3.13;;;3.10;91.00;;;;;;5052517;28;20195;-92
2022/03/30 07:24:29;;;;;;;9.80;3.70;;;3.10;91.00;;;;;;5052966;28;20619;-89
2022/03/30 07:26:55;;;;;;;11.93;3.90;;;3.10;91.00;;;;;;5052530;28;20322;-91
2022/03/30 07:29:21;;;;;;;13.47;3.53;;;3.10;90.90;;;;;;5052340;28;20230;-90
2022/03/30 07:31:47;;;;;;;11.67;3.03;;;3.10;90.80;;;;;;5054676;28;20569;-94
2022/03/30 07:34:12;;;;;;;5.33;3.27;;;3.10;90.70;;;;;;5054826;28;20180;-92
2022/03/30 07:36:38;;;;;;;6.27;2.47;;;3.10;90.70;;;;;;5054693;28;20250;-93
2022/03/30 07:39:04;;;;;;;8.67;3.40;;;3.10;90.60;;;;;;5054977;28;20178;-92
2022/03/30 07:41:30;;;;;;;8.23;2.97;;;3.20;90.50;;;;;;5054380;28;20245;-92
2022/03/30 07:43:55;;;;;;;13.03;3.20;;;3.20;90.60;;;;;;5054064;28;20179;-93
2022/03/30 07:46:21;;;;;;;11.73;2.93;;;3.20;90.50;;;;;;5054527;28;20563;-91
2022/03/30 07:48:46;;;;;;;8.30;3.73;;;3.20;90.40;;;;;;5054207;28;20195;-91
2022/03/30 07:51:12;;;;;;;11.57;3.03;;;3.20;90.40;;;;;;5053563;28;20649;-92
2022/03/30 07:53:38;;;;;;;8.70;3.07;;;3.30;90.40;;;;;;5053930;28;20174;-92
2022/03/30 07:56:04;;;;;;;6.50;3.20;;;3.30;90.30;;;;;;5053385;28;20172;-92
2022/03/30 07:58:29;;;;;;;11.37;3.33;;;3.30;90.20;;;;;;5053594;28;20190;-93
2022/03/30 08:00:55;;;;;;;10.43;3.40;;;3.30;90.10;;;;;;5053596;28;20211;-92
2022/03/30 08:03:20;;;;;;;12.43;3.10;;;3.30;90.10;;;;;;5055115;28;20191;-87
2022/03/30 08:05:46;;;;;;;4.53;2.67;;;3.40;90.10;;;;;;5055454;28;20202;-92
2022/03/30 08:08:11;;;;;;;9.43;3.73;;;3.40;90.10;;;;;;5054002;28;20211;-93
2022/03/30 08:10:37;;;;;;;10.07;2.73;;;3.30;89.90;;;;;;5053135;28;20217;-92
2022/03/30 08:13:04;;;;;;;10.50;3.03;;;3.40;89.90;;;;;;5054449;28;20198;-92
2022/03/30 08:15:30;;;;;;;13.97;3.93;;;3.40;89.80;;;;;;5060178;28;20232;-92
2022/03/30 08:17:56;;;;;;;7.77;3.20;;;3.40;89.80;;;;;;5061300;28;20176;-92
2022/03/30 08:23:08;;;;;;;11.13;3.80;;;3.60;90.00;;;;;;5059151;28;20164;-91
2022/03/30 08:25:36;;;;;;;6.47;3.30;;;3.60;90.00;;;;;;5057848;28;20172;-92
2022/03/30 08:28:03;;;;;;;9.40;3.50;;;3.70;90.00;;;;;;5057660;28;20612;-92
2022/03/30 08:30:29;;;;;;;7.90;3.80;;;3.70;89.90;;;;;;5058937;28;20199;-92
2022/03/30 08:32:55;;;;;;;6.30;3.83;;;3.70;89.90;;;;;;5058374;28;20263;-93
2022/03/30 08:35:22;;;;;;;5.47;3.63;;;3.80;89.90;;;;;;5057560;28;20578;-92
2022/03/30 08:37:48;;;;;;;7.77;4.10;;;3.80;89.80;;;;;;5057786;28;20213;-92
2022/03/30 08:40:14;;;;;;;9.57;4.13;;;3.80;89.80;;;;;;5057278;28;20655;-92
2022/03/30 08:42:41;;;;;;;7.37;4.50;;;3.80;89.60;;;;;;5057899;28;20186;-91
2022/03/30 08:45:09;;;;;;;8.57;3.97;;;3.80;89.50;;;;;;5059981;28;20187;-90
2022/03/30 08:47:36;;;;;;;12.00;4.57;;;3.80;89.40;;;;;;5069188;28;20180;-92
2022/03/30 08:50:03;;;;;;;11.50;4.20;;;3.80;89.30;;;;;;5079176;28;20200;-91
2022/03/30 08:52:29;;;;;;;10.97;4.43;;;3.80;89.30;;;;;;5073735;28;20240;-91
2022/03/30 08:54:56;;;;;;;11.00;4.57;;;3.80;89.10;;;;;;5063332;28;20188;-89
2022/03/30 08:57:22;;;;;;;10.77;4.77;;;3.80;88.90;;;;;;5060674;28;20180;-92
2022/03/30 09:00:16;;;;;;;10.33;4.20;;;3.90;88.80;;;;;;5058483;28;20633;-92
2022/03/30 09:02:44;;;;;;;8.57;4.20;;;3.90;88.80;;;;;;5056489;28;20180;-91
2022/03/30 09:05:15;;;;;;;8.57;3.73;;;3.80;88.50;;;;;;5056892;28;20631;-90
2022/03/30 09:07:41;;;;;;;6.10;4.17;;;3.90;88.40;;;;;;5056001;28;20172;-92
2022/03/30 09:10:19;;;;;;;8.63;3.77;;;3.90;88.40;;;;;;5058601;28;20695;-91
2022/03/30 09:12:47;;;;;;;11.97;4.93;;;4.00;88.40;;;;;;5060379;28;20176;-92
2022/03/30 09:15:13;;;;;;;9.87;4.03;;;4.10;88.60;;;;;;5058610;28;20186;-90
2022/03/30 09:17:40;;;;;;;6.17;4.17;;;4.10;88.40;;;;;;5054708;28;20176;-89
2022/03/30 09:20:11;;;;;;;8.67;4.67;;;4.20;88.40;;;;;;5054858;28;20210;-89
2022/03/30 09:22:58;;;;;;;17.77;5.40;;;4.30;88.40;;;;;;5054748;28;20273;-91
2022/03/30 09:25:25;;;;;;;7.17;3.50;;;4.30;88.20;;;;;;5053965;28;20211;-91
2022/03/30 09:27:54;;;;;;;14.87;4.57;;;4.20;88.00;;;;;;5054515;28;20607;-90
2022/03/30 09:30:21;;;;;;;9.00;4.60;;;4.20;87.90;;;;;;5054690;28;20192;-92
2022/03/30 09:32:52;;;;;;;8.63;4.07;;;4.30;88.20;;;;;;5055276;28;20597;-91
2022/03/30 09:35:38;;;;;;;11.03;4.77;;;4.30;87.70;;;;;;5055269;28;20169;-90
2022/03/30 09:38:13;;;;;;;11.17;4.70;;;4.30;87.70;;;;;;5054214;28;20678;-90
2022/03/30 09:41:01;;;;;;;10.57;5.17;;;4.40;87.80;;;;;;5054467;28;20202;-89
2022/03/30 09:43:34;;;;;;;8.33;4.90;;;4.50;87.80;;;;;;5055499;28;20199;-91
2022/03/30 09:46:03;;;;;;;8.43;4.63;;;4.50;87.60;;;;;;5063922;28;20156;-92
2022/03/30 09:48:30;;;;;;;7.37;4.83;;;4.50;87.50;;;;;;5071030;28;20295;-93
2022/03/30 09:50:58;;;;;;;11.63;4.47;;;4.60;87.70;;;;;;5066598;28;20180;-92
2022/03/30 09:53:27;;;;;;;9.17;4.73;;;4.60;87.50;;;;;;5067194;28;20180;-92
2022/03/30 09:56:00;;;;;;;5.90;4.20;;;4.60;87.30;;;;;;5059789;28;20191;-90
2022/03/30 09:58:34;;;;;;;9.20;4.97;;;4.60;87.00;;;;;;5061462;28;20179;-94
2022/03/30 10:01:05;;;;;;;9.47;4.83;;;4.60;86.50;;;;;;5061163;28;20203;-91
2022/03/30 10:03:49;;;;;;;9.27;4.97;;;4.60;86.60;;;;;;5057085;28;20195;-88
2022/03/30 10:06:21;;;;;;;6.83;4.13;;;4.70;86.10;;;;;;5067410;28;20187;-91
2022/03/30 10:08:49;;;;;;;12.77;4.70;;;4.80;86.40;;;;;;5065720;28;20188;-91
2022/03/30 10:11:18;;;;;;;6.83;3.40;;;4.80;86.30;;;;;;5070642;28;20339;-90
2022/03/30 10:13:49;;;;;;;7.53;3.63;;;5.00;86.60;;;;;;5061965;28;20234;-90
2022/03/30 10:16:17;;;;;;;11.20;3.83;;;4.90;85.50;;;;;;5057893;28;20226;-91
2022/03/30 10:18:43;;;;;;;10.43;3.90;;;4.90;85.10;;;;;;5054990;28;20307;-92
2022/03/30 10:21:19;;;;;;;12.40;4.10;;;4.90;84.90;;;;;;5054087;28;20629;-91
2022/03/30 10:24:22;;;;;;;8.73;3.43;;;4.90;84.70;;;;;;5053714;28;20533;-91
2022/03/30 10:27:10;;;;;;;5.90;2.90;;;5.00;84.30;;;;;;5053486;28;20180;-90
2022/03/30 10:29:37;;;;;;;4.67;2.57;;;5.20;84.20;;;;;;5056831;28;20212;-90
2022/03/30 10:32:11;;;;;;;11.43;3.03;;;5.20;83.60;;;;;;5059076;28;20199;-90
2022/03/30 10:34:57;;;;;;;4.30;2.87;;;5.30;83.60;;;;;;5053854;28;20662;-92
2022/03/30 10:37:38;;;;;;;6.33;2.97;;;5.20;82.80;;;;;;5053891;28;20183;-92
2022/03/30 10:40:06;;;;;;;7.83;2.97;;;5.30;83.10;;;;;;5053325;28;20248;-92
2022/03/30 10:42:47;;;;;;;5.57;2.83;;;5.30;82.10;;;;;;5053100;28;20661;-92
2022/03/30 10:45:28;;;;;;;3.40;2.80;;;5.20;81.90;;;;;;5054228;28;20318;-92
2022/03/30 10:48:17;;;;;;;4.83;3.00;;;5.30;82.20;;;;;;5058498;28;20552;-93
2022/03/30 10:50:58;;;;;;;9.20;2.53;;;5.40;82.00;;;;;;5118524;22;20229;-90
2022/03/30 10:53:33;;;;;;;6.10;2.73;;;5.60;82.30;;;;;;5062608;28;20197;-93
2022/03/30 10:56:14;;;;;;;12.87;3.03;;;5.60;80.70;;;;;;5063305;28;20175;-93
2022/03/30 10:59:00;;;;;;;4.20;2.50;;;5.50;80.40;;;;;;5066816;28;20180;-93
2022/03/30 11:01:37;;;;;;;6.43;2.63;;;5.30;79.50;;;;;;5069705;28;20206;-90
2022/03/30 11:04:08;;;;;;;6.00;3.10;;;5.40;79.90;;;;;;5074253;28;20244;-92
2022/03/30 11:06:37;;;;;;;5.27;2.50;;;5.60;79.80;;;;;;5060742;28;20556;-93
2022/03/30 11:09:07;;;;;;;5.27;2.40;;;5.50;78.70;;;;;;5056208;28;20206;-91
2022/03/30 11:11:39;;;;;;;7.73;3.03;;;5.60;78.80;;;;;;5057622;28;20204;-92
2022/03/30 11:14:28;;;;;;;5.50;2.70;;;5.70;78.70;;;;;;5057370;28;20181;-92
2022/03/30 11:17:08;;;;;;;3.73;2.60;;;5.70;77.50;;;;;;5063106;28;20178;-91
2022/03/30 11:19:55;;;;;;;7.73;2.80;;;5.80;77.80;;;;;;5068498;28;20181;-92
2022/03/30 11:22:36;;;;;;;5.03;2.83;;;6.00;78.30;;;;;;5066302;28;20190;-93
2022/03/30 11:25:13;;;;;;;3.73;2.50;;;6.00;77.60;;;;;;5059321;28;20179;-92
2022/03/30 11:27:40;;;;;;;4.07;2.90;;;6.10;77.20;;;;;;5058557;28;20178;-90
2022/03/30 11:30:12;;;;;;;2.30;2.10;;;6.00;75.80;;;;;;5058221;28;20203;-92
2022/03/30 11:32:59;;;;;;;13.27;3.00;;;6.20;76.80;;;;;;5059236;28;20552;-92
2022/03/30 11:35:39;;;;;;;11.27;3.00;;;6.30;76.70;;;;;;5059926;28;20239;-91
2022/03/30 11:38:08;;;;;;;4.37;2.53;;;6.20;74.70;;;;;;5056214;28;20184;-92
2022/03/30 11:40:42;;;;;;;4.97;3.17;;;6.20;74.00;;;;;;5056770;28;20654;-91
2022/03/30 11:43:09;;;;;;;5.07;2.50;;;6.20;74.50;;;;;;5060984;28;20261;-90
2022/03/30 11:45:35;;;;;;;5.47;2.80;;;6.40;74.30;;;;;;5063003;28;20183;-91
2022/03/30 11:48:06;;;;;;;6.63;3.40;;;6.40;73.50;;;;;;5055445;28;20696;-91
2022/03/30 11:50:36;;;;;;;6.73;2.53;;;6.50;73.80;;;;;;5055153;28;20225;-90
2022/03/30 11:53:08;;;;;;;6.07;2.60;;;6.60;73.30;;;;;;5056270;28;20655;-89
2022/03/30 11:55:56;;;;;;;7.23;2.53;;;6.70;73.30;;;;;;5058233;28;20172;-92
2022/03/30 11:58:23;;;;;;;10.03;3.23;;;6.80;73.30;;;;;;5055720;28;20182;-91
2022/03/30 12:00:48;;;;;;;5.53;3.33;;;7.00;73.90;;;;;;5055384;28;20191;-90
2022/03/30 12:03:17;;;;;;;6.07;3.20;;;7.00;72.60;;;;;;5064046;28;20182;-92
2022/03/30 12:05:43;;;;;;;4.37;2.40;;;7.00;71.90;;;;;;5068025;28;20175;-92
2022/03/30 12:08:09;;;;;;;4.50;2.50;;;6.80;72.00;;;;;;5083261;22;20211;-92
2022/03/30 12:10:35;;;;;;;3.37;2.30;;;6.80;72.40;;;;;;5074595;28;20214;-93
2022/03/30 12:13:01;;;;;;;4.27;2.43;;;6.70;72.10;;;;;;5071315;28;20187;-92
2022/03/30 12:15:27;;;;;;;6.57;2.83;;;6.70;71.50;;;;;;5052588;28;20540;-91
2022/03/30 12:18:00;;;;;;;8.13;3.47;;;6.70;70.90;;;;;;5052158;28;20172;-90
2022/03/30 12:20:29;;;;;;;4.87;2.80;;;6.70;72.40;;;;;;5051954;28;20192;-91
2022/03/30 12:23:07;;;;;;;8.80;2.60;;;6.70;71.30;;;;;;5051847;28;20225;-91
2022/03/30 12:25:36;;;;;;;5.23;2.67;;;6.70;71.50;;;;;;5051859;28;20263;-91
2022/03/30 12:28:03;;;;;;;6.00;3.13;;;6.60;71.60;;;;;;5051846;28;20704;-91
2022/03/30 12:30:32;;;;;;;6.37;2.83;;;6.80;73.20;;;;;;5051854;28;20211;-89
2022/03/30 12:32:58;;;;;;;5.63;2.90;;;6.80;73.00;;;;;;5051960;28;20176;-89
2022/03/30 12:35:28;;;;;;;4.17;3.33;;;6.80;72.60;;;;;;5051446;28;20176;-89
2022/03/30 12:38:08;;;;;;;5.33;3.20;;;6.90;72.60;;;;;;5051305;28;20172;-90
2022/03/30 12:40:37;;;;;;;3.50;2.77;;;7.00;72.00;;;;;;5051900;28;20200;-90
2022/03/30 12:43:03;;;;;;;5.17;3.00;;;7.40;73.20;;;;;;5051502;28;20301;-90
2022/03/30 12:45:54;;;;;;;4.13;2.50;;;7.50;70.80;;;;;;5051526;28;20184;-88
2022/03/30 12:48:29;;;;;;;5.27;2.67;;;7.80;70.40;;;;;;5052276;28;20172;-89
2022/03/30 12:50:59;;;;;;;6.70;3.00;;;8.00;70.30;;;;;;5052322;28;20202;-90
2022/03/30 12:53:39;;;;;;;3.57;2.50;;;7.80;67.70;;;;;;5051379;28;20226;-89
2022/03/30 12:56:17;;;;;;;4.60;2.60;;;8.00;68.90;;;;;;5051543;28;20616;-90
2022/03/30 12:58:56;;;;;;;5.60;2.40;;;8.10;66.60;;;;;;5051612;28;20187;-89
2022/03/30 13:01:37;;;;;;;4.13;2.30;;;8.00;64.40;;;;;;5053260;28;20697;-90
2022/03/30 13:04:24;;;;;;;4.13;2.40;;;7.70;64.30;;;;;;5056038;28;20180;-89
2022/03/30 13:07:10;;;;;;;3.43;2.47;;;7.90;64.70;;;;;;5055620;28;20229;-89
2022/03/30 13:09:59;;;;;;;7.30;2.50;;;7.80;65.00;;;;;;5059662;28;20223;-94